sensor_id;sensor_type;location;lat;lon;timestamp;pressure;altitude;pressure_sealevel;temperature;humidity
77120;BME280;66073;47.730;9.352;2023-04-30T00:02:09;96872.28;;;11.65;72.38
77120;BME280;66073;47.730;9.352;2023-04-30T00:04:35;96879.00;;;11.62;72.24
77120;BME280;66073;47.730;9.352;2023-04-30T00:07:01;96879.44;;;11.79;71.71
77120;BME280;66073;47.730;9.352;2023-04-30T00:09:26;96875.72;;;11.70;71.74
77120;BME280;66073;47.730;9.352;2023-04-30T00:11:52;96877.47;;;11.95;71.46
77120;BME280;66073;47.730;9.352;2023-04-30T00:14:17;96880.03;;;12.10;71.00
77120;BME280;66073;47.730;9.352;2023-04-30T00:16:43;96876.03;;;12.13;70.65
77120;BME280;66073;47.730;9.352;2023-04-30T00:19:08;96889.09;;;11.80;71.36
77120;BME280;66073;47.730;9.352;2023-04-30T00:21:34;96879.94;;;11.86;71.10
77120;BME280;66073;47.730;9.352;2023-04-30T00:23:59;96870.78;;;11.98;70.85
77120;BME280;66073;47.730;9.352;2023-04-30T00:26:25;96872.44;;;11.88;70.75
77120;BME280;66073;47.730;9.352;2023-04-30T00:28:51;96861.84;;;11.68;71.72
77120;BME280;66073;47.730;9.352;2023-04-30T00:31:16;96859.16;;;11.73;71.92
77120;BME280;66073;47.730;9.352;2023-04-30T00:33:42;96856.56;;;11.53;72.26
77120;BME280;66073;47.730;9.352;2023-04-30T00:36:07;96851.66;;;11.75;72.46
77120;BME280;66073;47.730;9.352;2023-04-30T00:38:33;96856.22;;;11.65;72.08
77120;BME280;66073;47.730;9.352;2023-04-30T00:40:58;96856.00;;;11.56;72.60
77120;BME280;66073;47.730;9.352;2023-04-30T00:43:24;96845.09;;;11.48;72.84
77120;BME280;66073;47.730;9.352;2023-04-30T00:45:49;96854.19;;;11.47;72.87
77120;BME280;66073;47.730;9.352;2023-04-30T00:48:15;96849.09;;;11.50;73.03
77120;BME280;66073;47.730;9.352;2023-04-30T00:50:43;96847.75;;;11.53;72.78
77120;BME280;66073;47.730;9.352;2023-04-30T00:53:10;96848.28;;;11.50;73.06
77120;BME280;66073;47.730;9.352;2023-04-30T00:55:36;96835.22;;;11.48;72.89
77120;BME280;66073;47.730;9.352;2023-04-30T00:58:01;96843.19;;;11.58;72.48
77120;BME280;66073;47.730;9.352;2023-04-30T01:00:27;96842.94;;;11.55;73.03
77120;BME280;66073;47.730;9.352;2023-04-30T01:02:54;96838.09;;;11.57;72.85
77120;BME280;66073;47.730;9.352;2023-04-30T01:05:21;96847.50;;;11.49;72.85
77120;BME280;66073;47.730;9.352;2023-04-30T01:07:48;96840.38;;;11.29;73.20
77120;BME280;66073;47.730;9.352;2023-04-30T01:10:14;96839.81;;;11.37;73.15
77120;BME280;66073;47.730;9.352;2023-04-30T01:15:45;96840.59;;;11.38;72.91
77120;BME280;66073;47.730;9.352;2023-04-30T01:18:27;96841.06;;;11.55;72.13
77120;BME280;66073;47.730;9.352;2023-04-30T01:21:07;96848.75;;;11.08;73.72
77120;BME280;66073;47.730;9.352;2023-04-30T01:29:05;96851.41;;;11.13;74.02
77120;BME280;66073;47.730;9.352;2023-04-30T01:31:32;96846.88;;;11.08;73.70
77120;BME280;66073;47.730;9.352;2023-04-30T01:33:57;96844.41;;;11.27;73.23
77120;BME280;66073;47.730;9.352;2023-04-30T01:36:34;96845.56;;;11.06;73.77
77120;BME280;66073;47.730;9.352;2023-04-30T01:44:32;96847.47;;;10.95;74.88
77120;BME280;66073;47.730;9.352;2023-04-30T01:47:32;96844.56;;;10.81;75.06
77120;BME280;66073;47.730;9.352;2023-04-30T01:52:54;96844.78;;;11.00;74.76
77120;BME280;66073;47.730;9.352;2023-04-30T01:55:36;96841.53;;;11.03;74.46
77120;BME280;66073;47.730;9.352;2023-04-30T01:58:05;96843.41;;;11.03;74.44
77120;BME280;66073;47.730;9.352;2023-04-30T02:00:32;96822.63;;;10.89;74.75
77120;BME280;66073;47.730;9.352;2023-04-30T02:02:58;96830.97;;;10.73;75.42
77120;BME280;66073;47.730;9.352;2023-04-30T02:05:24;96827.25;;;10.69;75.42
77120;BME280;66073;47.730;9.352;2023-04-30T02:07:51;96837.38;;;10.72;75.17
77120;BME280;66073;47.730;9.352;2023-04-30T02:10:24;96832.56;;;10.79;75.33
77120;BME280;66073;47.730;9.352;2023-04-30T02:12:51;96821.69;;;10.55;75.91
77120;BME280;66073;47.730;9.352;2023-04-30T02:15:16;96830.75;;;10.59;75.50
77120;BME280;66073;47.730;9.352;2023-04-30T02:17:42;96824.31;;;10.60;75.58
77120;BME280;66073;47.730;9.352;2023-04-30T02:20:08;96841.13;;;10.61;75.38
77120;BME280;66073;47.730;9.352;2023-04-30T02:22:34;96838.22;;;10.57;75.72
77120;BME280;66073;47.730;9.352;2023-04-30T02:25:00;96835.56;;;10.47;75.76
77120;BME280;66073;47.730;9.352;2023-04-30T02:27:25;96833.94;;;10.66;75.43
77120;BME280;66073;47.730;9.352;2023-04-30T02:29:52;96830.75;;;10.54;75.22
77120;BME280;66073;47.730;9.352;2023-04-30T02:32:17;96833.41;;;10.59;75.35
77120;BME280;66073;47.730;9.352;2023-04-30T02:34:43;96823.03;;;10.48;75.45
77120;BME280;66073;47.730;9.352;2023-04-30T02:37:09;96827.28;;;10.38;76.11
77120;BME280;66073;47.730;9.352;2023-04-30T02:39:36;96831.00;;;10.53;75.54
77120;BME280;66073;47.730;9.352;2023-04-30T02:42:01;96824.38;;;10.40;75.58
77120;BME280;66073;47.730;9.352;2023-04-30T02:44:27;96824.88;;;10.42;75.91
77120;BME280;66073;47.730;9.352;2023-04-30T02:46:53;96818.75;;;10.47;75.47
77120;BME280;66073;47.730;9.352;2023-04-30T02:49:18;96816.34;;;10.40;75.90
77120;BME280;66073;47.730;9.352;2023-04-30T02:51:44;96820.06;;;10.49;75.57
77120;BME280;66073;47.730;9.352;2023-04-30T02:54:09;96824.88;;;10.47;75.48
77120;BME280;66073;47.730;9.352;2023-04-30T02:56:34;96815.03;;;10.37;75.94
77120;BME280;66073;47.730;9.352;2023-04-30T02:59:00;96820.59;;;10.46;75.77
77120;BME280;66073;47.730;9.352;2023-04-30T03:01:26;96817.44;;;10.29;76.43
77120;BME280;66073;47.730;9.352;2023-04-30T03:03:51;96827.03;;;10.30;76.56
77120;BME280;66073;47.730;9.352;2023-04-30T03:06:17;96819.28;;;10.28;76.31
77120;BME280;66073;47.730;9.352;2023-04-30T03:08:43;96828.09;;;10.29;76.41
77120;BME280;66073;47.730;9.352;2023-04-30T03:11:08;96824.38;;;10.20;76.81
77120;BME280;66073;47.730;9.352;2023-04-30T03:13:34;96814.25;;;10.22;76.77
77120;BME280;66073;47.730;9.352;2023-04-30T03:16:00;96818.78;;;10.16;76.71
77120;BME280;66073;47.730;9.352;2023-04-30T03:18:27;96824.38;;;10.20;76.86
77120;BME280;66073;47.730;9.352;2023-04-30T03:20:53;96824.38;;;10.20;76.76
77120;BME280;66073;47.730;9.352;2023-04-30T03:23:18;96827.28;;;10.08;77.38
77120;BME280;66073;47.730;9.352;2023-04-30T03:25:44;96825.97;;;10.21;76.97
77120;BME280;66073;47.730;9.352;2023-04-30T03:28:09;96825.97;;;10.06;77.22
77120;BME280;66073;47.730;9.352;2023-04-30T03:30:35;96818.78;;;10.16;77.24
77120;BME280;66073;47.730;9.352;2023-04-30T03:33:00;96823.03;;;10.17;77.23
77120;BME280;66073;47.730;9.352;2023-04-30T03:35:26;96829.13;;;10.03;77.58
77120;BME280;66073;47.730;9.352;2023-04-30T03:37:51;96827.00;;;10.10;77.38
77120;BME280;66073;47.730;9.352;2023-04-30T03:40:17;96815.84;;;10.18;77.22
77120;BME280;66073;47.730;9.352;2023-04-30T03:42:42;96820.66;;;10.16;77.71
77120;BME280;66073;47.730;9.352;2023-04-30T03:45:08;96822.22;;;10.32;77.16
77120;BME280;66073;47.730;9.352;2023-04-30T03:47:35;96816.91;;;10.22;77.20
77120;BME280;66073;47.730;9.352;2023-04-30T03:50:02;96808.38;;;10.20;77.06
77120;BME280;66073;47.730;9.352;2023-04-30T03:52:28;96811.28;;;10.08;77.50
77120;BME280;66073;47.730;9.352;2023-04-30T03:54:53;96811.56;;;9.96;77.66
77120;BME280;66073;47.730;9.352;2023-04-30T03:57:19;96817.69;;;9.97;78.13
77120;BME280;66073;47.730;9.352;2023-04-30T03:59:45;96818.22;;;9.99;78.26
77120;BME280;66073;47.730;9.352;2023-04-30T04:02:11;96822.22;;;9.91;77.96
77120;BME280;66073;47.730;9.352;2023-04-30T04:04:36;96819.81;;;10.00;78.04
77120;BME280;66073;47.730;9.352;2023-04-30T04:07:02;96817.16;;;10.20;77.49
77120;BME280;66073;47.730;9.352;2023-04-30T04:09:28;96818.47;;;9.92;78.12
77120;BME280;66073;47.730;9.352;2023-04-30T04:11:54;96822.75;;;10.09;77.75
77120;BME280;66073;47.730;9.352;2023-04-30T04:14:20;96819.03;;;10.15;77.54
77120;BME280;66073;47.730;9.352;2023-04-30T04:16:45;96812.13;;;10.19;77.35
77120;BME280;66073;47.730;9.352;2023-04-30T04:19:11;96820.09;;;10.24;76.93
77120;BME280;66073;47.730;9.352;2023-04-30T04:21:38;96827.56;;;10.12;77.33
77120;BME280;66073;47.730;9.352;2023-04-30T04:24:04;96828.91;;;10.19;77.14
77120;BME280;66073;47.730;9.352;2023-04-30T04:26:34;96831.53;;;9.99;77.72
77120;BME280;66073;47.730;9.352;2023-04-30T04:29:01;96833.44;;;9.99;78.17
77120;BME280;66073;47.730;9.352;2023-04-30T04:31:27;96828.63;;;10.01;78.32
77120;BME280;66073;47.730;9.352;2023-04-30T04:33:55;96835.28;;;10.08;78.07
77120;BME280;66073;47.730;9.352;2023-04-30T04:36:24;96829.72;;;10.30;77.37
77120;BME280;66073;47.730;9.352;2023-04-30T04:38:52;96832.34;;;10.10;77.92
77120;BME280;66073;47.730;9.352;2023-04-30T04:41:17;96834.22;;;10.09;78.27
77120;BME280;66073;47.730;9.352;2023-04-30T04:43:43;96831.84;;;10.18;77.47
77120;BME280;66073;47.730;9.352;2023-04-30T04:46:09;96837.69;;;10.05;78.02
77120;BME280;66073;47.730;9.352;2023-04-30T04:48:34;96835.84;;;10.15;77.86
77120;BME280;66073;47.730;9.352;2023-04-30T04:51:00;96832.91;;;10.02;78.07
77120;BME280;66073;47.730;9.352;2023-04-30T04:53:25;96841.41;;;10.04;78.23
77120;BME280;66073;47.730;9.352;2023-04-30T04:55:51;96844.66;;;10.16;78.05
77120;BME280;66073;47.730;9.352;2023-04-30T04:58:16;96833.97;;;10.31;77.14
77120;BME280;66073;47.730;9.352;2023-04-30T05:00:43;96840.94;;;10.27;77.43
77120;BME280;66073;47.730;9.352;2023-04-30T05:03:08;96833.72;;;10.22;77.20
77120;BME280;66073;47.730;9.352;2023-04-30T05:05:34;96827.56;;;10.32;76.59
77120;BME280;66073;47.730;9.352;2023-04-30T05:08:00;96831.31;;;10.26;77.62
77120;BME280;66073;47.730;9.352;2023-04-30T05:10:25;96834.78;;;10.21;77.32
77120;BME280;66073;47.730;9.352;2023-04-30T05:12:50;96831.28;;;10.11;78.10
77120;BME280;66073;47.730;9.352;2023-04-30T05:15:16;96842.25;;;10.34;77.54
77120;BME280;66073;47.730;9.352;2023-04-30T05:17:41;96842.75;;;10.52;76.25
77120;BME280;66073;47.730;9.352;2023-04-30T05:20:08;96836.38;;;10.37;76.96
77120;BME280;66073;47.730;9.352;2023-04-30T05:22:33;96837.66;;;10.65;75.77
77120;BME280;66073;47.730;9.352;2023-04-30T05:24:59;96843.56;;;10.52;76.22
77120;BME280;66073;47.730;9.352;2023-04-30T05:27:25;96845.72;;;10.40;76.99
77120;BME280;66073;47.730;9.352;2023-04-30T05:29:51;96840.88;;;10.57;76.13
77120;BME280;66073;47.730;9.352;2023-04-30T05:32:17;96856.38;;;10.40;76.59
77120;BME280;66073;47.730;9.352;2023-04-30T05:34:42;96841.97;;;10.31;76.88
77120;BME280;66073;47.730;9.352;2023-04-30T05:37:08;96845.69;;;10.50;76.47
77120;BME280;66073;47.730;9.352;2023-04-30T05:39:33;96836.34;;;10.58;76.33
77120;BME280;66073;47.730;9.352;2023-04-30T05:41:59;96847.06;;;10.37;76.59
77120;BME280;66073;47.730;9.352;2023-04-30T05:44:24;96848.13;;;10.21;76.71
77120;BME280;66073;47.730;9.352;2023-04-30T05:46:49;96840.38;;;10.40;76.96
77120;BME280;66073;47.730;9.352;2023-04-30T05:49:15;96851.31;;;10.33;76.41
77120;BME280;66073;47.730;9.352;2023-04-30T05:51:40;96838.25;;;10.37;76.95
77120;BME280;66073;47.730;9.352;2023-04-30T05:54:06;96842.25;;;10.29;77.06
77120;BME280;66073;47.730;9.352;2023-04-30T05:56:32;96837.94;;;10.54;76.13
77120;BME280;66073;47.730;9.352;2023-04-30T05:58:57;96840.84;;;10.67;75.45
77120;BME280;66073;47.730;9.352;2023-04-30T06:01:24;96833.06;;;10.81;74.89
77120;BME280;66073;47.730;9.352;2023-04-30T06:03:49;96840.88;;;10.57;75.66
77120;BME280;66073;47.730;9.352;2023-04-30T06:06:15;96838.69;;;10.79;74.59
77120;BME280;66073;47.730;9.352;2023-04-30T06:08:40;96838.72;;;10.64;76.00
77120;BME280;66073;47.730;9.352;2023-04-30T06:11:10;96841.84;;;10.91;74.55
77120;BME280;66073;47.730;9.352;2023-04-30T06:13:36;96836.56;;;10.76;74.84
77120;BME280;66073;47.730;9.352;2023-04-30T06:16:03;96834.41;;;10.83;74.78
77120;BME280;66073;47.730;9.352;2023-04-30T06:18:29;96831.72;;;10.93;74.73
77120;BME280;66073;47.730;9.352;2023-04-30T06:20:54;96835.47;;;10.82;75.16
77120;BME280;66073;47.730;9.352;2023-04-30T06:23:19;96834.38;;;10.93;73.87
77120;BME280;66073;47.730;9.352;2023-04-30T06:25:45;96831.97;;;10.92;74.50
77120;BME280;66073;47.730;9.352;2023-04-30T06:28:10;96832.72;;;11.13;74.10
77120;BME280;66073;47.730;9.352;2023-04-30T06:30:37;96836.78;;;11.49;73.06
77120;BME280;66073;47.730;9.352;2023-04-30T06:33:03;96825.09;;;11.40;72.61
77120;BME280;66073;47.730;9.352;2023-04-30T06:35:28;96839.22;;;11.51;72.39
77120;BME280;66073;47.730;9.352;2023-04-30T06:37:54;96836.34;;;11.86;71.98
77120;BME280;66073;47.730;9.352;2023-04-30T06:40:19;96836.59;;;11.40;72.83
77120;BME280;66073;47.730;9.352;2023-04-30T06:42:45;96835.88;;;12.13;70.76
77120;BME280;66073;47.730;9.352;2023-04-30T06:45:12;96822.16;;;11.90;70.86
77120;BME280;66073;47.730;9.352;2023-04-30T06:47:40;96831.59;;;12.12;70.09
77120;BME280;66073;47.730;9.352;2023-04-30T06:50:07;96833.03;;;12.62;69.40
77120;BME280;66073;47.730;9.352;2023-04-30T06:52:33;96824.34;;;12.46;69.46
77120;BME280;66073;47.730;9.352;2023-04-30T06:54:59;96829.78;;;12.36;69.99
77120;BME280;66073;47.730;9.352;2023-04-30T06:57:26;96816.44;;;12.60;69.09
77120;BME280;66073;47.730;9.352;2023-04-30T06:59:52;96814.13;;;12.77;68.08
77120;BME280;66073;47.730;9.352;2023-04-30T07:02:17;96811.06;;;12.36;68.42
77120;BME280;66073;47.730;9.352;2023-04-30T07:04:43;96813.22;;;12.34;69.09
77120;BME280;66073;47.730;9.352;2023-04-30T07:07:08;96815.84;;;12.68;68.62
77120;BME280;66073;47.730;9.352;2023-04-30T07:09:34;96813.34;;;12.76;68.27
77120;BME280;66073;47.730;9.352;2023-04-30T07:12:00;96816.38;;;12.41;69.09
77120;BME280;66073;47.730;9.352;2023-04-30T07:14:26;96814.09;;;12.53;68.34
77120;BME280;66073;47.730;9.352;2023-04-30T07:16:52;96814.16;;;12.48;68.06
77120;BME280;66073;47.730;9.352;2023-04-30T07:19:18;96816.31;;;12.17;69.29
77120;BME280;66073;47.730;9.352;2023-04-30T07:21:43;96815.97;;;12.24;69.21
77120;BME280;66073;47.730;9.352;2023-04-30T07:24:09;96810.00;;;12.61;69.10
77120;BME280;66073;47.730;9.352;2023-04-30T07:26:35;96812.97;;;12.59;68.94
77120;BME280;66073;47.730;9.352;2023-04-30T07:29:01;96798.50;;;12.60;68.18
77120;BME280;66073;47.730;9.352;2023-04-30T07:31:26;96807.97;;;12.76;67.74
77120;BME280;66073;47.730;9.352;2023-04-30T07:33:52;96812.16;;;12.87;68.02
77120;BME280;66073;47.730;9.352;2023-04-30T07:36:19;96812.78;;;13.27;66.55
77120;BME280;66073;47.730;9.352;2023-04-30T07:38:45;96817.56;;;13.30;66.23
77120;BME280;66073;47.730;9.352;2023-04-30T07:41:10;96820.59;;;13.42;66.94
77120;BME280;66073;47.730;9.352;2023-04-30T07:43:36;96814.25;;;13.75;65.01
77120;BME280;66073;47.730;9.352;2023-04-30T07:46:01;96813.44;;;13.75;65.89
77120;BME280;66073;47.730;9.352;2023-04-30T07:48:28;96809.88;;;13.42;64.20
77120;BME280;66073;47.730;9.352;2023-04-30T07:50:54;96822.28;;;12.90;65.98
77120;BME280;66073;47.730;9.352;2023-04-30T07:53:21;96821.00;;;13.12;65.60
77120;BME280;66073;47.730;9.352;2023-04-30T07:55:47;96828.00;;;13.50;65.79
77120;BME280;66073;47.730;9.352;2023-04-30T07:58:12;96827.00;;;13.83;65.01
77120;BME280;66073;47.730;9.352;2023-04-30T08:00:38;96821.22;;;13.76;64.63
77120;BME280;66073;47.730;9.352;2023-04-30T08:03:03;96817.72;;;13.95;65.08
77120;BME280;66073;47.730;9.352;2023-04-30T08:05:29;96815.97;;;13.66;63.51
77120;BME280;66073;47.730;9.352;2023-04-30T08:07:54;96814.19;;;14.13;64.43
77120;BME280;66073;47.730;9.352;2023-04-30T08:10:20;96821.28;;;13.90;62.88
77120;BME280;66073;47.730;9.352;2023-04-30T08:12:45;96818.81;;;14.26;63.08
77120;BME280;66073;47.730;9.352;2023-04-30T08:15:11;96810.25;;;14.24;62.90
77120;BME280;66073;47.730;9.352;2023-04-30T08:17:36;96809.16;;;14.44;61.99
77120;BME280;66073;47.730;9.352;2023-04-30T08:20:02;96809.97;;;14.58;62.41
77120;BME280;66073;47.730;9.352;2023-04-30T08:22:29;96815.31;;;14.12;62.76
77120;BME280;66073;47.730;9.352;2023-04-30T08:24:54;96814.22;;;14.45;61.67
77120;BME280;66073;47.730;9.352;2023-04-30T08:27:20;96811.44;;;14.18;61.80
77120;BME280;66073;47.730;9.352;2023-04-30T08:29:46;96818.41;;;14.19;62.81
77120;BME280;66073;47.730;9.352;2023-04-30T08:32:13;96808.69;;;14.55;62.19
77120;BME280;66073;47.730;9.352;2023-04-30T08:34:38;96818.13;;;14.66;61.10
77120;BME280;66073;47.730;9.352;2023-04-30T08:37:07;96810.78;;;14.58;61.07
77120;BME280;66073;47.730;9.352;2023-04-30T08:39:33;96814.31;;;14.40;61.28
77120;BME280;66073;47.730;9.352;2023-04-30T08:42:01;96815.28;;;14.76;60.93
77120;BME280;66073;47.730;9.352;2023-04-30T08:44:29;96798.16;;;14.86;59.78
77120;BME280;66073;47.730;9.352;2023-04-30T08:46:55;96806.53;;;14.38;60.23
77120;BME280;66073;47.730;9.352;2023-04-30T08:49:23;96816.91;;;14.45;61.32
77120;BME280;66073;47.730;9.352;2023-04-30T08:51:50;96817.38;;;14.79;60.29
77120;BME280;66073;47.730;9.352;2023-04-30T08:54:17;96820.75;;;14.85;61.07
77120;BME280;66073;47.730;9.352;2023-04-30T08:56:46;96814.00;;;15.01;59.67
77120;BME280;66073;47.730;9.352;2023-04-30T08:59:12;96812.81;;;14.94;59.12
77120;BME280;66073;47.730;9.352;2023-04-30T09:01:38;96815.75;;;15.60;58.91
77120;BME280;66073;47.730;9.352;2023-04-30T09:04:04;96807.56;;;15.65;57.50
77120;BME280;66073;47.730;9.352;2023-04-30T09:06:30;96809.50;;;15.87;58.63
77120;BME280;66073;47.730;9.352;2023-04-30T09:08:56;96811.81;;;16.02;57.91
77120;BME280;66073;47.730;9.352;2023-04-30T09:11:29;96820.66;;;15.58;57.50
77120;BME280;66073;47.730;9.352;2023-04-30T09:13:57;96819.72;;;15.76;57.96
77120;BME280;66073;47.730;9.352;2023-04-30T09:16:26;96818.84;;;15.54;56.89
77120;BME280;66073;47.730;9.352;2023-04-30T09:18:52;96819.19;;;14.98;58.85
77120;BME280;66073;47.730;9.352;2023-04-30T09:21:32;96819.25;;;14.93;58.98
77120;BME280;66073;47.730;9.352;2023-04-30T09:24:01;96818.13;;;15.75;57.61
77120;BME280;66073;47.730;9.352;2023-04-30T09:26:31;96823.63;;;15.93;56.63
77120;BME280;66073;47.730;9.352;2023-04-30T09:28:58;96826.47;;;15.74;57.05
77120;BME280;66073;47.730;9.352;2023-04-30T09:31:24;96824.13;;;16.17;56.81
77120;BME280;66073;47.730;9.352;2023-04-30T09:33:51;96814.38;;;16.52;55.97
77120;BME280;66073;47.730;9.352;2023-04-30T09:36:17;96819.22;;;16.41;55.78
77120;BME280;66073;47.730;9.352;2023-04-30T09:38:43;96811.78;;;17.00;52.96
77120;BME280;66073;47.730;9.352;2023-04-30T09:41:21;96817.94;;;16.92;54.66
77120;BME280;66073;47.730;9.352;2023-04-30T09:43:47;96801.84;;;16.69;53.45
77120;BME280;66073;47.730;9.352;2023-04-30T09:46:13;96798.72;;;16.84;53.54
77120;BME280;66073;47.730;9.352;2023-04-30T09:48:43;96818.78;;;17.01;54.42
77120;BME280;66073;47.730;9.352;2023-04-30T09:51:09;96805.00;;;17.11;52.30
77120;BME280;66073;47.730;9.352;2023-04-30T09:53:41;96811.19;;;17.59;51.09
77120;BME280;66073;47.730;9.352;2023-04-30T09:56:10;96802.09;;;17.47;51.27
77120;BME280;66073;47.730;9.352;2023-04-30T09:58:38;96806.34;;;16.29;53.32
77120;BME280;66073;47.730;9.352;2023-04-30T10:01:09;96803.34;;;16.93;54.31
77120;BME280;66073;47.730;9.352;2023-04-30T10:03:38;96806.28;;;17.05;53.43
77120;BME280;66073;47.730;9.352;2023-04-30T10:06:05;96807.84;;;17.06;52.31
77120;BME280;66073;47.730;9.352;2023-04-30T10:08:52;96800.78;;;17.35;51.86
77120;BME280;66073;47.730;9.352;2023-04-30T10:11:25;96807.38;;;17.95;51.77
77120;BME280;66073;47.730;9.352;2023-04-30T10:14:00;96809.16;;;17.82;50.59
77120;BME280;66073;47.730;9.352;2023-04-30T10:16:36;96797.69;;;18.28;49.60
77120;BME280;66073;47.730;9.352;2023-04-30T10:19:18;96790.03;;;16.96;51.01
77120;BME280;66073;47.730;9.352;2023-04-30T10:21:46;96786.59;;;17.04;52.55
77120;BME280;66073;47.730;9.352;2023-04-30T10:24:16;96791.91;;;17.26;51.87
77120;BME280;66073;47.730;9.352;2023-04-30T10:26:45;96786.75;;;18.07;51.10
77120;BME280;66073;47.730;9.352;2023-04-30T10:29:15;96793.88;;;18.03;49.44
77120;BME280;66073;47.730;9.352;2023-04-30T10:31:45;96783.88;;;18.21;51.17
77120;BME280;66073;47.730;9.352;2023-04-30T10:34:27;96782.75;;;17.88;50.37
77120;BME280;66073;47.730;9.352;2023-04-30T10:37:01;96785.84;;;18.75;49.20
77120;BME280;66073;47.730;9.352;2023-04-30T10:39:29;96783.19;;;18.41;48.73
77120;BME280;66073;47.730;9.352;2023-04-30T10:42:05;96780.38;;;17.95;49.33
77120;BME280;66073;47.730;9.352;2023-04-30T10:44:32;96773.97;;;18.51;49.25
77120;BME280;66073;47.730;9.352;2023-04-30T10:47:00;96779.44;;;17.73;50.97
77120;BME280;66073;47.730;9.352;2023-04-30T10:49:27;96760.75;;;17.12;50.68
77120;BME280;66073;47.730;9.352;2023-04-30T10:51:53;96765.13;;;17.81;51.04
77120;BME280;66073;47.730;9.352;2023-04-30T10:54:48;96753.22;;;17.91;50.50
77120;BME280;66073;47.730;9.352;2023-04-30T10:57:16;96764.78;;;16.83;51.76
77120;BME280;66073;47.730;9.352;2023-04-30T11:00:16;96764.56;;;17.19;51.02
77120;BME280;66073;47.730;9.352;2023-04-30T11:02:45;96758.16;;;17.98;50.26
77120;BME280;66073;47.730;9.352;2023-04-30T11:05:16;96759.25;;;18.77;49.67
77120;BME280;66073;47.730;9.352;2023-04-30T11:08:11;96758.47;;;18.05;49.77
77120;BME280;66073;47.730;9.352;2023-04-30T11:10:37;96755.19;;;18.37;49.39
77120;BME280;66073;47.730;9.352;2023-04-30T11:13:05;96752.44;;;18.08;50.38
77120;BME280;66073;47.730;9.352;2023-04-30T11:15:42;96754.44;;;18.37;48.68
77120;BME280;66073;47.730;9.352;2023-04-30T11:18:12;96763.03;;;18.13;48.70
77120;BME280;66073;47.730;9.352;2023-04-30T11:20:49;96756.88;;;17.87;47.93
77120;BME280;66073;47.730;9.352;2023-04-30T11:23:19;96752.69;;;18.32;48.72
77120;BME280;66073;47.730;9.352;2023-04-30T11:25:47;96751.69;;;18.45;46.74
77120;BME280;66073;47.730;9.352;2023-04-30T11:28:20;96751.91;;;18.23;48.16
77120;BME280;66073;47.730;9.352;2023-04-30T11:30:54;96751.16;;;17.97;48.12
77120;BME280;66073;47.730;9.352;2023-04-30T11:33:21;96747.97;;;17.77;50.46
77120;BME280;66073;47.730;9.352;2023-04-30T11:35:49;96741.53;;;18.42;49.90
77120;BME280;66073;47.730;9.352;2023-04-30T11:38:20;96741.00;;;17.94;49.21
77120;BME280;66073;47.730;9.352;2023-04-30T11:40:47;96735.47;;;18.45;47.20
77120;BME280;66073;47.730;9.352;2023-04-30T11:43:32;96738.44;;;17.89;49.92
77120;BME280;66073;47.730;9.352;2023-04-30T11:48:23;96724.91;;;18.06;49.60
77120;BME280;66073;47.730;9.352;2023-04-30T11:50:49;96726.72;;;17.76;50.09
77120;BME280;66073;47.730;9.352;2023-04-30T11:53:15;96731.31;;;18.01;49.71
77120;BME280;66073;47.730;9.352;2023-04-30T11:55:40;96732.09;;;17.59;49.98
77120;BME280;66073;47.730;9.352;2023-04-30T11:58:08;96726.84;;;17.37;49.99
77120;BME280;66073;47.730;9.352;2023-04-30T12:00:33;96721.28;;;18.02;49.43
77120;BME280;66073;47.730;9.352;2023-04-30T12:02:59;96734.34;;;17.65;50.40
77120;BME280;66073;47.730;9.352;2023-04-30T12:05:28;96716.38;;;17.78;50.23
77120;BME280;66073;47.730;9.352;2023-04-30T12:07:54;96717.03;;;17.58;50.95
77120;BME280;66073;47.730;9.352;2023-04-30T12:10:21;96727.66;;;17.89;49.86
77120;BME280;66073;47.730;9.352;2023-04-30T12:12:49;96717.09;;;17.10;51.39
77120;BME280;66073;47.730;9.352;2023-04-30T12:15:19;96714.59;;;17.39;50.09
77120;BME280;66073;47.730;9.352;2023-04-30T12:17:47;96718.91;;;17.49;49.67
77120;BME280;66073;47.730;9.352;2023-04-30T12:20:14;96710.41;;;18.36;48.36
77120;BME280;66073;47.730;9.352;2023-04-30T12:22:41;96720.94;;;19.05;48.67
77120;BME280;66073;47.730;9.352;2023-04-30T12:25:11;96714.66;;;19.63;48.03
77120;BME280;66073;47.730;9.352;2023-04-30T12:27:48;96706.06;;;19.82;46.21
77120;BME280;66073;47.730;9.352;2023-04-30T12:30:19;96702.88;;;20.45;45.41
77120;BME280;66073;47.730;9.352;2023-04-30T12:32:49;96695.16;;;19.90;46.40
77120;BME280;66073;47.730;9.352;2023-04-30T12:35:19;96704.72;;;20.90;43.04
77120;BME280;66073;47.730;9.352;2023-04-30T12:37:49;96693.53;;;21.03;43.49
77120;BME280;66073;47.730;9.352;2023-04-30T12:40:20;96697.50;;;20.94;42.50
77120;BME280;66073;47.730;9.352;2023-04-30T12:42:50;96692.59;;;20.39;44.10
77120;BME280;66073;47.730;9.352;2023-04-30T12:45:41;96693.50;;;19.15;46.63
77120;BME280;66073;47.730;9.352;2023-04-30T12:48:07;96689.81;;;19.82;45.38
77120;BME280;66073;47.730;9.352;2023-04-30T12:50:33;96685.03;;;19.37;46.79
77120;BME280;66073;47.730;9.352;2023-04-30T12:53:01;96687.00;;;20.23;46.39
77120;BME280;66073;47.730;9.352;2023-04-30T12:55:27;96680.44;;;20.69;43.05
77120;BME280;66073;47.730;9.352;2023-04-30T13:00:47;96672.06;;;20.50;41.72
77120;BME280;66073;47.730;9.352;2023-04-30T13:03:13;96674.13;;;19.54;45.20
77120;BME280;66073;47.730;9.352;2023-04-30T13:05:45;96673.44;;;20.23;43.29
77120;BME280;66073;47.730;9.352;2023-04-30T13:08:12;96661.53;;;20.60;44.29
77120;BME280;66073;47.730;9.352;2023-04-30T13:10:38;96659.06;;;20.43;45.14
77120;BME280;66073;47.730;9.352;2023-04-30T13:13:03;96661.06;;;21.19;42.91
77120;BME280;66073;47.730;9.352;2023-04-30T13:15:29;96668.81;;;19.16;44.76
77120;BME280;66073;47.730;9.352;2023-04-30T13:17:55;96665.53;;;19.52;44.80
77120;BME280;66073;47.730;9.352;2023-04-30T13:20:20;96659.97;;;20.71;41.17
77120;BME280;66073;47.730;9.352;2023-04-30T13:22:46;96661.94;;;21.35;39.95
77120;BME280;66073;47.730;9.352;2023-04-30T13:25:11;96661.19;;;20.50;44.38